Bealach na Ba, United Kingdom
Current Conditions -  °F | °C
As of 1:50 AM on Friday 26 Dec 2014 (Local Time) from EGPO Reporting Station
Broken Clouds Broken Clouds  
Wind Chill: 32°   Ceiling: 2700
Heat Index: 36°   Visibility: 6mi
Dew Point: 32°   Wind: 5mph
Humidity: 87%   Direction: 220°SW
Pressure: 30.33"   Gusts: NA
Location:  57.42°N, 5.69°W
Report Text: EGPO 260150Z AUTO 22004KT 9999 FEW018/// BKN027/// 02/M00 Q1027
Loading
Personal Weather Stations






























Interactive Weather Map New forecast layout! Learn more

10-Day Weather Forecast

Advertisements
Track Severe Weather on mobile